sensor_id;sensor_type;location;lat;lon;timestamp;P1;durP1;ratioP1;P2;durP2;ratioP2
6133;SDS011;3098;42.678;23.364;2023-07-13T00:01:45;9.63;;;4.20;;
6133;SDS011;3098;42.678;23.364;2023-07-13T00:04:16;9.55;;;4.03;;
6133;SDS011;3098;42.678;23.364;2023-07-13T00:06:44;9.65;;;4.47;;
6133;SDS011;3098;42.678;23.364;2023-07-13T00:09:12;9.00;;;4.30;;
6133;SDS011;3098;42.678;23.364;2023-07-13T00:11:40;6.43;;;3.95;;
6133;SDS011;3098;42.678;23.364;2023-07-13T00:14:08;12.85;;;4.30;;
6133;SDS011;3098;42.678;23.364;2023-07-13T00:16:36;9.20;;;4.32;;
6133;SDS011;3098;42.678;23.364;2023-07-13T00:19:05;8.20;;;4.38;;
6133;SDS011;3098;42.678;23.364;2023-07-13T00:21:33;5.55;;;4.03;;
6133;SDS011;3098;42.678;23.364;2023-07-13T00:24:00;6.95;;;4.35;;
6133;SDS011;3098;42.678;23.364;2023-07-13T00:26:28;8.07;;;4.53;;
6133;SDS011;3098;42.678;23.364;2023-07-13T00:28:55;6.95;;;3.90;;
6133;SDS011;3098;42.678;23.364;2023-07-13T00:31:21;5.47;;;3.83;;
6133;SDS011;3098;42.678;23.364;2023-07-13T00:33:48;6.40;;;4.15;;
6133;SDS011;3098;42.678;23.364;2023-07-13T00:36:15;6.38;;;4.15;;
6133;SDS011;3098;42.678;23.364;2023-07-13T00:38:43;7.00;;;4.07;;
6133;SDS011;3098;42.678;23.364;2023-07-13T00:41:10;6.10;;;4.43;;
6133;SDS011;3098;42.678;23.364;2023-07-13T00:43:38;8.80;;;4.55;;
6133;SDS011;3098;42.678;23.364;2023-07-13T00:46:11;7.20;;;4.78;;
6133;SDS011;3098;42.678;23.364;2023-07-13T00:48:39;8.40;;;4.57;;
6133;SDS011;3098;42.678;23.364;2023-07-13T00:51:07;7.70;;;4.55;;
6133;SDS011;3098;42.678;23.364;2023-07-13T00:53:35;10.43;;;4.15;;
6133;SDS011;3098;42.678;23.364;2023-07-13T00:56:04;11.50;;;4.82;;
6133;SDS011;3098;42.678;23.364;2023-07-13T00:58:32;9.15;;;4.63;;
6133;SDS011;3098;42.678;23.364;2023-07-13T01:01:00;7.53;;;4.65;;
6133;SDS011;3098;42.678;23.364;2023-07-13T01:03:27;7.75;;;4.45;;
6133;SDS011;3098;42.678;23.364;2023-07-13T01:05:54;6.90;;;4.60;;
6133;SDS011;3098;42.678;23.364;2023-07-13T01:08:21;6.72;;;4.03;;
6133;SDS011;3098;42.678;23.364;2023-07-13T01:10:52;6.25;;;4.40;;
6133;SDS011;3098;42.678;23.364;2023-07-13T01:13:21;9.55;;;5.05;;
6133;SDS011;3098;42.678;23.364;2023-07-13T01:15:49;8.05;;;4.82;;
6133;SDS011;3098;42.678;23.364;2023-07-13T01:18:18;6.50;;;4.75;;
6133;SDS011;3098;42.678;23.364;2023-07-13T01:20:52;9.57;;;5.28;;
6133;SDS011;3098;42.678;23.364;2023-07-13T01:23:20;8.07;;;4.57;;
6133;SDS011;3098;42.678;23.364;2023-07-13T01:25:48;10.57;;;4.85;;
6133;SDS011;3098;42.678;23.364;2023-07-13T01:28:15;6.10;;;4.43;;
6133;SDS011;3098;42.678;23.364;2023-07-13T01:30:42;9.00;;;4.25;;
6133;SDS011;3098;42.678;23.364;2023-07-13T01:33:11;12.80;;;4.03;;
6133;SDS011;3098;42.678;23.364;2023-07-13T01:35:38;11.35;;;4.88;;
6133;SDS011;3098;42.678;23.364;2023-07-13T01:38:07;14.05;;;4.85;;
6133;SDS011;3098;42.678;23.364;2023-07-13T01:40:36;6.40;;;4.45;;
6133;SDS011;3098;42.678;23.364;2023-07-13T01:43:03;9.30;;;4.57;;
6133;SDS011;3098;42.678;23.364;2023-07-13T01:45:30;7.97;;;4.57;;
6133;SDS011;3098;42.678;23.364;2023-07-13T01:47:58;7.75;;;4.65;;
6133;SDS011;3098;42.678;23.364;2023-07-13T01:50:25;9.02;;;4.40;;
6133;SDS011;3098;42.678;23.364;2023-07-13T01:52:52;6.78;;;4.22;;
6133;SDS011;3098;42.678;23.364;2023-07-13T01:55:20;8.60;;;4.78;;
6133;SDS011;3098;42.678;23.364;2023-07-13T01:57:47;6.55;;;4.07;;
6133;SDS011;3098;42.678;23.364;2023-07-13T02:00:14;8.13;;;4.88;;
6133;SDS011;3098;42.678;23.364;2023-07-13T02:02:42;7.78;;;4.63;;
6133;SDS011;3098;42.678;23.364;2023-07-13T02:05:09;10.18;;;4.45;;
6133;SDS011;3098;42.678;23.364;2023-07-13T02:07:36;14.63;;;4.55;;
6133;SDS011;3098;42.678;23.364;2023-07-13T02:10:04;7.90;;;4.68;;
6133;SDS011;3098;42.678;23.364;2023-07-13T02:12:33;12.45;;;6.18;;
6133;SDS011;3098;42.678;23.364;2023-07-13T02:15:00;9.18;;;4.47;;
6133;SDS011;3098;42.678;23.364;2023-07-13T02:17:27;8.82;;;4.95;;
6133;SDS011;3098;42.678;23.364;2023-07-13T02:19:54;16.55;;;5.00;;
6133;SDS011;3098;42.678;23.364;2023-07-13T02:22:21;9.57;;;5.03;;
6133;SDS011;3098;42.678;23.364;2023-07-13T02:24:49;10.27;;;4.88;;
6133;SDS011;3098;42.678;23.364;2023-07-13T02:27:15;7.75;;;4.63;;
6133;SDS011;3098;42.678;23.364;2023-07-13T02:29:44;8.57;;;5.07;;
6133;SDS011;3098;42.678;23.364;2023-07-13T02:32:11;6.00;;;4.38;;
6133;SDS011;3098;42.678;23.364;2023-07-13T02:34:38;7.50;;;4.75;;
6133;SDS011;3098;42.678;23.364;2023-07-13T02:37:07;7.13;;;4.90;;
6133;SDS011;3098;42.678;23.364;2023-07-13T02:39:35;8.15;;;4.60;;
6133;SDS011;3098;42.678;23.364;2023-07-13T02:42:01;6.75;;;4.85;;
6133;SDS011;3098;42.678;23.364;2023-07-13T02:44:28;8.20;;;4.93;;
6133;SDS011;3098;42.678;23.364;2023-07-13T02:46:57;6.35;;;4.40;;
6133;SDS011;3098;42.678;23.364;2023-07-13T02:49:24;7.43;;;4.68;;
6133;SDS011;3098;42.678;23.364;2023-07-13T02:51:51;7.88;;;5.32;;
6133;SDS011;3098;42.678;23.364;2023-07-13T02:54:18;8.82;;;4.90;;
6133;SDS011;3098;42.678;23.364;2023-07-13T02:56:45;6.50;;;4.47;;
6133;SDS011;3098;42.678;23.364;2023-07-13T02:59:12;6.35;;;4.30;;
6133;SDS011;3098;42.678;23.364;2023-07-13T03:01:38;7.97;;;4.63;;
6133;SDS011;3098;42.678;23.364;2023-07-13T03:04:07;6.85;;;5.00;;
6133;SDS011;3098;42.678;23.364;2023-07-13T03:06:34;7.45;;;5.13;;
6133;SDS011;3098;42.678;23.364;2023-07-13T03:09:01;9.85;;;5.13;;
6133;SDS011;3098;42.678;23.364;2023-07-13T03:11:29;10.52;;;5.50;;
6133;SDS011;3098;42.678;23.364;2023-07-13T03:13:56;10.48;;;6.28;;
6133;SDS011;3098;42.678;23.364;2023-07-13T03:16:23;9.52;;;5.97;;
6133;SDS011;3098;42.678;23.364;2023-07-13T03:18:50;11.98;;;6.50;;
6133;SDS011;3098;42.678;23.364;2023-07-13T03:21:19;21.02;;;7.20;;
6133;SDS011;3098;42.678;23.364;2023-07-13T03:23:46;15.43;;;6.72;;
6133;SDS011;3098;42.678;23.364;2023-07-13T03:26:14;9.75;;;5.85;;
6133;SDS011;3098;42.678;23.364;2023-07-13T03:28:42;11.45;;;7.15;;
6133;SDS011;3098;42.678;23.364;2023-07-13T03:31:10;12.30;;;6.35;;
6133;SDS011;3098;42.678;23.364;2023-07-13T03:33:39;11.02;;;6.90;;
6133;SDS011;3098;42.678;23.364;2023-07-13T03:36:06;11.57;;;5.90;;
6133;SDS011;3098;42.678;23.364;2023-07-13T03:38:36;9.95;;;6.47;;
6133;SDS011;3098;42.678;23.364;2023-07-13T03:41:03;14.95;;;7.90;;
6133;SDS011;3098;42.678;23.364;2023-07-13T03:43:30;15.95;;;7.47;;
6133;SDS011;3098;42.678;23.364;2023-07-13T03:45:57;13.48;;;7.38;;
6133;SDS011;3098;42.678;23.364;2023-07-13T03:48:24;10.07;;;6.63;;
6133;SDS011;3098;42.678;23.364;2023-07-13T03:50:51;16.38;;;7.75;;
6133;SDS011;3098;42.678;23.364;2023-07-13T03:53:18;10.43;;;6.97;;
6133;SDS011;3098;42.678;23.364;2023-07-13T03:55:46;11.98;;;7.15;;
6133;SDS011;3098;42.678;23.364;2023-07-13T03:58:24;18.02;;;7.03;;
6133;SDS011;3098;42.678;23.364;2023-07-13T04:00:56;12.18;;;6.57;;
6133;SDS011;3098;42.678;23.364;2023-07-13T04:03:24;14.98;;;8.00;;
6133;SDS011;3098;42.678;23.364;2023-07-13T04:05:53;14.75;;;8.25;;
6133;SDS011;3098;42.678;23.364;2023-07-13T04:08:25;10.65;;;6.82;;
6133;SDS011;3098;42.678;23.364;2023-07-13T04:10:54;15.55;;;8.48;;
6133;SDS011;3098;42.678;23.364;2023-07-13T04:13:22;25.58;;;14.52;;
6133;SDS011;3098;42.678;23.364;2023-07-13T04:15:49;29.05;;;15.23;;
6133;SDS011;3098;42.678;23.364;2023-07-13T04:18:17;18.65;;;8.80;;
6133;SDS011;3098;42.678;23.364;2023-07-13T04:20:44;12.10;;;7.50;;
6133;SDS011;3098;42.678;23.364;2023-07-13T04:23:11;20.88;;;8.68;;
6133;SDS011;3098;42.678;23.364;2023-07-13T04:25:38;14.90;;;7.57;;
6133;SDS011;3098;42.678;23.364;2023-07-13T04:28:06;13.52;;;8.88;;
6133;SDS011;3098;42.678;23.364;2023-07-13T04:30:33;13.60;;;9.02;;
6133;SDS011;3098;42.678;23.364;2023-07-13T04:33:01;15.05;;;8.98;;
6133;SDS011;3098;42.678;23.364;2023-07-13T04:35:28;13.48;;;8.85;;
6133;SDS011;3098;42.678;23.364;2023-07-13T04:37:54;15.05;;;9.43;;
6133;SDS011;3098;42.678;23.364;2023-07-13T04:40:21;15.35;;;9.15;;
6133;SDS011;3098;42.678;23.364;2023-07-13T04:42:49;16.38;;;8.60;;
6133;SDS011;3098;42.678;23.364;2023-07-13T04:45:17;10.82;;;7.53;;
6133;SDS011;3098;42.678;23.364;2023-07-13T04:47:44;16.48;;;8.80;;
6133;SDS011;3098;42.678;23.364;2023-07-13T04:50:12;12.57;;;8.32;;
6133;SDS011;3098;42.678;23.364;2023-07-13T04:52:45;13.95;;;8.88;;
6133;SDS011;3098;42.678;23.364;2023-07-13T04:55:11;17.85;;;8.73;;
6133;SDS011;3098;42.678;23.364;2023-07-13T04:57:38;15.80;;;8.38;;
6133;SDS011;3098;42.678;23.364;2023-07-13T05:00:06;11.75;;;7.55;;
6133;SDS011;3098;42.678;23.364;2023-07-13T05:02:37;15.20;;;8.38;;
6133;SDS011;3098;42.678;23.364;2023-07-13T05:05:06;14.82;;;8.63;;
6133;SDS011;3098;42.678;23.364;2023-07-13T05:07:33;13.82;;;8.07;;
6133;SDS011;3098;42.678;23.364;2023-07-13T05:10:00;17.70;;;8.57;;
6133;SDS011;3098;42.678;23.364;2023-07-13T05:12:28;16.05;;;8.02;;
6133;SDS011;3098;42.678;23.364;2023-07-13T05:14:55;16.17;;;8.30;;
6133;SDS011;3098;42.678;23.364;2023-07-13T05:17:22;13.05;;;7.90;;
6133;SDS011;3098;42.678;23.364;2023-07-13T05:19:51;15.65;;;8.23;;
6133;SDS011;3098;42.678;23.364;2023-07-13T05:22:18;14.35;;;8.68;;
6133;SDS011;3098;42.678;23.364;2023-07-13T05:24:44;13.65;;;7.75;;
6133;SDS011;3098;42.678;23.364;2023-07-13T05:27:11;11.55;;;7.82;;
6133;SDS011;3098;42.678;23.364;2023-07-13T05:29:39;12.63;;;7.60;;
6133;SDS011;3098;42.678;23.364;2023-07-13T05:32:06;13.02;;;7.95;;
6133;SDS011;3098;42.678;23.364;2023-07-13T05:34:33;10.52;;;7.78;;
6133;SDS011;3098;42.678;23.364;2023-07-13T05:37:01;11.93;;;7.30;;
6133;SDS011;3098;42.678;23.364;2023-07-13T05:39:28;14.68;;;8.43;;
6133;SDS011;3098;42.678;23.364;2023-07-13T05:41:55;9.70;;;7.22;;
6133;SDS011;3098;42.678;23.364;2023-07-13T05:44:22;13.70;;;8.07;;
6133;SDS011;3098;42.678;23.364;2023-07-13T05:46:48;14.40;;;7.30;;
6133;SDS011;3098;42.678;23.364;2023-07-13T05:49:15;16.80;;;9.57;;
6133;SDS011;3098;42.678;23.364;2023-07-13T05:51:42;14.45;;;8.02;;
6133;SDS011;3098;42.678;23.364;2023-07-13T05:54:10;10.02;;;7.50;;
6133;SDS011;3098;42.678;23.364;2023-07-13T05:56:37;11.93;;;8.50;;
6133;SDS011;3098;42.678;23.364;2023-07-13T05:59:04;19.63;;;8.00;;
6133;SDS011;3098;42.678;23.364;2023-07-13T06:01:31;12.88;;;8.18;;
6133;SDS011;3098;42.678;23.364;2023-07-13T06:03:58;10.50;;;7.65;;
6133;SDS011;3098;42.678;23.364;2023-07-13T06:06:25;12.00;;;7.35;;
6133;SDS011;3098;42.678;23.364;2023-07-13T06:08:52;16.20;;;6.90;;
6133;SDS011;3098;42.678;23.364;2023-07-13T06:11:21;10.20;;;6.85;;
6133;SDS011;3098;42.678;23.364;2023-07-13T06:13:50;9.85;;;7.20;;
6133;SDS011;3098;42.678;23.364;2023-07-13T06:16:17;13.20;;;6.85;;
6133;SDS011;3098;42.678;23.364;2023-07-13T06:18:44;8.45;;;5.97;;
6133;SDS011;3098;42.678;23.364;2023-07-13T06:21:12;8.93;;;6.20;;
6133;SDS011;3098;42.678;23.364;2023-07-13T06:23:41;14.63;;;6.72;;
6133;SDS011;3098;42.678;23.364;2023-07-13T06:26:09;13.15;;;6.30;;
6133;SDS011;3098;42.678;23.364;2023-07-13T06:28:38;11.43;;;6.40;;
6133;SDS011;3098;42.678;23.364;2023-07-13T06:31:05;14.10;;;7.80;;
6133;SDS011;3098;42.678;23.364;2023-07-13T06:33:33;16.85;;;7.53;;
6133;SDS011;3098;42.678;23.364;2023-07-13T06:36:00;14.85;;;7.13;;
6133;SDS011;3098;42.678;23.364;2023-07-13T06:38:28;11.60;;;6.60;;
6133;SDS011;3098;42.678;23.364;2023-07-13T06:40:54;11.82;;;7.25;;
6133;SDS011;3098;42.678;23.364;2023-07-13T06:43:21;14.05;;;6.40;;
6133;SDS011;3098;42.678;23.364;2023-07-13T06:45:51;11.40;;;6.80;;
6133;SDS011;3098;42.678;23.364;2023-07-13T06:48:20;11.75;;;7.43;;
6133;SDS011;3098;42.678;23.364;2023-07-13T06:50:48;10.80;;;7.05;;
6133;SDS011;3098;42.678;23.364;2023-07-13T06:53:17;12.95;;;6.57;;
6133;SDS011;3098;42.678;23.364;2023-07-13T06:55:44;9.27;;;6.80;;
6133;SDS011;3098;42.678;23.364;2023-07-13T06:58:12;11.07;;;7.30;;
6133;SDS011;3098;42.678;23.364;2023-07-13T07:00:39;14.30;;;7.78;;
6133;SDS011;3098;42.678;23.364;2023-07-13T07:03:07;11.65;;;6.82;;
6133;SDS011;3098;42.678;23.364;2023-07-13T07:05:34;10.88;;;7.22;;
6133;SDS011;3098;42.678;23.364;2023-07-13T07:08:01;14.75;;;7.88;;
6133;SDS011;3098;42.678;23.364;2023-07-13T07:10:29;10.15;;;6.90;;
6133;SDS011;3098;42.678;23.364;2023-07-13T07:12:56;13.40;;;6.93;;
6133;SDS011;3098;42.678;23.364;2023-07-13T07:15:23;15.93;;;7.65;;
6133;SDS011;3098;42.678;23.364;2023-07-13T07:17:50;15.23;;;7.47;;
6133;SDS011;3098;42.678;23.364;2023-07-13T07:20:18;12.85;;;7.28;;
6133;SDS011;3098;42.678;23.364;2023-07-13T07:22:46;11.80;;;7.20;;
6133;SDS011;3098;42.678;23.364;2023-07-13T07:25:14;14.98;;;8.20;;
6133;SDS011;3098;42.678;23.364;2023-07-13T07:27:42;13.13;;;7.03;;
6133;SDS011;3098;42.678;23.364;2023-07-13T07:30:09;14.13;;;6.80;;
6133;SDS011;3098;42.678;23.364;2023-07-13T07:32:36;9.05;;;6.70;;
6133;SDS011;3098;42.678;23.364;2023-07-13T07:35:03;11.50;;;6.90;;
6133;SDS011;3098;42.678;23.364;2023-07-13T07:37:32;13.13;;;7.22;;
6133;SDS011;3098;42.678;23.364;2023-07-13T07:40:00;9.45;;;6.60;;
6133;SDS011;3098;42.678;23.364;2023-07-13T07:42:27;7.90;;;6.45;;
6133;SDS011;3098;42.678;23.364;2023-07-13T07:44:54;13.50;;;6.50;;
6133;SDS011;3098;42.678;23.364;2023-07-13T07:47:21;8.48;;;6.25;;
6133;SDS011;3098;42.678;23.364;2023-07-13T07:49:49;9.65;;;6.07;;
6133;SDS011;3098;42.678;23.364;2023-07-13T07:52:16;15.20;;;7.13;;
6133;SDS011;3098;42.678;23.364;2023-07-13T07:54:44;9.85;;;6.85;;
6133;SDS011;3098;42.678;23.364;2023-07-13T07:57:11;13.18;;;6.57;;
6133;SDS011;3098;42.678;23.364;2023-07-13T07:59:38;12.52;;;6.47;;
6133;SDS011;3098;42.678;23.364;2023-07-13T08:02:05;9.45;;;6.53;;
6133;SDS011;3098;42.678;23.364;2023-07-13T08:04:34;10.18;;;6.95;;
6133;SDS011;3098;42.678;23.364;2023-07-13T08:07:01;22.52;;;6.43;;
6133;SDS011;3098;42.678;23.364;2023-07-13T08:09:29;16.55;;;7.13;;
6133;SDS011;3098;42.678;23.364;2023-07-13T08:11:57;15.90;;;7.55;;
6133;SDS011;3098;42.678;23.364;2023-07-13T08:14:24;11.52;;;6.35;;
6133;SDS011;3098;42.678;23.364;2023-07-13T08:16:50;14.27;;;7.57;;
6133;SDS011;3098;42.678;23.364;2023-07-13T08:19:18;16.70;;;7.65;;
6133;SDS011;3098;42.678;23.364;2023-07-13T08:21:45;14.35;;;7.72;;
6133;SDS011;3098;42.678;23.364;2023-07-13T08:24:13;14.50;;;7.35;;
6133;SDS011;3098;42.678;23.364;2023-07-13T08:26:40;13.05;;;7.50;;
6133;SDS011;3098;42.678;23.364;2023-07-13T08:29:09;11.23;;;7.13;;
6133;SDS011;3098;42.678;23.364;2023-07-13T08:31:35;12.57;;;7.20;;
6133;SDS011;3098;42.678;23.364;2023-07-13T08:34:03;10.25;;;7.70;;
6133;SDS011;3098;42.678;23.364;2023-07-13T08:36:30;13.70;;;7.07;;
6133;SDS011;3098;42.678;23.364;2023-07-13T08:38:57;15.02;;;7.38;;
6133;SDS011;3098;42.678;23.364;2023-07-13T08:41:23;15.75;;;7.32;;
6133;SDS011;3098;42.678;23.364;2023-07-13T08:43:51;10.27;;;7.32;;
6133;SDS011;3098;42.678;23.364;2023-07-13T08:46:25;13.45;;;7.05;;
6133;SDS011;3098;42.678;23.364;2023-07-13T08:48:56;16.25;;;7.45;;
6133;SDS011;3098;42.678;23.364;2023-07-13T08:51:28;11.15;;;6.63;;
6133;SDS011;3098;42.678;23.364;2023-07-13T08:54:02;11.82;;;7.05;;
6133;SDS011;3098;42.678;23.364;2023-07-13T08:56:32;13.27;;;7.35;;
6133;SDS011;3098;42.678;23.364;2023-07-13T08:59:00;13.02;;;7.05;;
6133;SDS011;3098;42.678;23.364;2023-07-13T09:01:40;9.95;;;6.90;;
6133;SDS011;3098;42.678;23.364;2023-07-13T09:04:18;9.27;;;7.28;;
6133;SDS011;3098;42.678;23.364;2023-07-13T09:06:55;12.57;;;7.30;;
6133;SDS011;3098;42.678;23.364;2023-07-13T09:09:31;16.40;;;7.50;;
6133;SDS011;3098;42.678;23.364;2023-07-13T09:12:09;13.43;;;6.88;;
6133;SDS011;3098;42.678;23.364;2023-07-13T09:14:44;11.25;;;6.55;;
6133;SDS011;3098;42.678;23.364;2023-07-13T09:17:17;11.80;;;7.18;;
6133;SDS011;3098;42.678;23.364;2023-07-13T09:19:48;13.57;;;7.60;;
6133;SDS011;3098;42.678;23.364;2023-07-13T09:22:20;9.98;;;7.55;;
6133;SDS011;3098;42.678;23.364;2023-07-13T09:24:51;17.25;;;8.27;;
6133;SDS011;3098;42.678;23.364;2023-07-13T09:27:25;11.15;;;7.40;;
6133;SDS011;3098;42.678;23.364;2023-07-13T09:29:58;11.90;;;8.05;;
6133;SDS011;3098;42.678;23.364;2023-07-13T09:32:32;15.38;;;7.35;;
6133;SDS011;3098;42.678;23.364;2023-07-13T09:35:00;14.82;;;7.75;;
6133;SDS011;3098;42.678;23.364;2023-07-13T09:37:29;11.07;;;7.20;;
6133;SDS011;3098;42.678;23.364;2023-07-13T09:39:58;14.90;;;7.65;;
6133;SDS011;3098;42.678;23.364;2023-07-13T09:42:30;14.73;;;7.38;;
6133;SDS011;3098;42.678;23.364;2023-07-13T09:44:59;10.32;;;7.15;;
6133;SDS011;3098;42.678;23.364;2023-07-13T09:47:29;17.45;;;8.02;;
6133;SDS011;3098;42.678;23.364;2023-07-13T09:49:59;10.27;;;7.13;;
6133;SDS011;3098;42.678;23.364;2023-07-13T09:52:28;12.73;;;7.40;;
6133;SDS011;3098;42.678;23.364;2023-07-13T09:55:12;20.45;;;8.25;;
6133;SDS011;3098;42.678;23.364;2023-07-13T09:57:50;12.13;;;7.80;;
6133;SDS011;3098;42.678;23.364;2023-07-13T10:00:21;13.50;;;7.72;;
6133;SDS011;3098;42.678;23.364;2023-07-13T10:03:04;10.48;;;7.07;;
6133;SDS011;3098;42.678;23.364;2023-07-13T10:05:40;14.35;;;7.70;;
6133;SDS011;3098;42.678;23.364;2023-07-13T10:08:16;10.35;;;7.80;;
6133;SDS011;3098;42.678;23.364;2023-07-13T10:10:45;13.00;;;8.35;;
6133;SDS011;3098;42.678;23.364;2023-07-13T10:13:32;12.18;;;7.03;;
6133;SDS011;3098;42.678;23.364;2023-07-13T10:16:02;13.45;;;7.32;;
6133;SDS011;3098;42.678;23.364;2023-07-13T10:18:34;14.02;;;7.60;;
6133;SDS011;3098;42.678;23.364;2023-07-13T10:21:14;15.13;;;7.90;;
6133;SDS011;3098;42.678;23.364;2023-07-13T10:23:43;13.40;;;7.65;;
6133;SDS011;3098;42.678;23.364;2023-07-13T10:26:15;12.52;;;7.38;;
6133;SDS011;3098;42.678;23.364;2023-07-13T10:28:46;14.43;;;7.15;;
6133;SDS011;3098;42.678;23.364;2023-07-13T10:31:18;14.15;;;7.10;;
6133;SDS011;3098;42.678;23.364;2023-07-13T10:33:46;11.00;;;6.53;;
6133;SDS011;3098;42.678;23.364;2023-07-13T10:36:16;13.77;;;7.32;;
6133;SDS011;3098;42.678;23.364;2023-07-13T10:38:50;7.93;;;5.63;;
6133;SDS011;3098;42.678;23.364;2023-07-13T10:41:20;8.93;;;5.88;;
6133;SDS011;3098;42.678;23.364;2023-07-13T10:43:49;8.63;;;6.32;;
6133;SDS011;3098;42.678;23.364;2023-07-13T10:46:19;8.57;;;4.93;;
6133;SDS011;3098;42.678;23.364;2023-07-13T10:48:50;8.40;;;4.70;;
6133;SDS011;3098;42.678;23.364;2023-07-13T10:51:23;5.65;;;3.63;;
6133;SDS011;3098;42.678;23.364;2023-07-13T10:56:38;6.60;;;4.50;;
6133;SDS011;3098;42.678;23.364;2023-07-13T10:59:10;6.50;;;4.43;;
6133;SDS011;3098;42.678;23.364;2023-07-13T11:01:40;10.02;;;4.70;;
6133;SDS011;3098;42.678;23.364;2023-07-13T11:04:15;10.63;;;4.30;;
6133;SDS011;3098;42.678;23.364;2023-07-13T11:06:43;7.72;;;4.50;;
6133;SDS011;3098;42.678;23.364;2023-07-13T11:09:19;11.43;;;4.65;;
6133;SDS011;3098;42.678;23.364;2023-07-13T11:11:58;6.30;;;4.25;;
6133;SDS011;3098;42.678;23.364;2023-07-13T11:14:29;10.35;;;5.25;;
6133;SDS011;3098;42.678;23.364;2023-07-13T11:16:58;8.07;;;4.57;;
6133;SDS011;3098;42.678;23.364;2023-07-13T11:19:26;8.07;;;4.50;;
6133;SDS011;3098;42.678;23.364;2023-07-13T11:22:12;8.55;;;4.50;;
6133;SDS011;3098;42.678;23.364;2023-07-13T11:24:56;8.63;;;4.43;;
6133;SDS011;3098;42.678;23.364;2023-07-13T11:27:33;6.85;;;4.10;;
6133;SDS011;3098;42.678;23.364;2023-07-13T11:30:06;7.40;;;4.88;;
6133;SDS011;3098;42.678;23.364;2023-07-13T11:32:49;6.15;;;4.38;;
6133;SDS011;3098;42.678;23.364;2023-07-13T11:35:19;13.18;;;5.28;;
6133;SDS011;3098;42.678;23.364;2023-07-13T11:37:50;7.35;;;4.20;;
6133;SDS011;3098;42.678;23.364;2023-07-13T11:40:26;7.68;;;4.32;;
6133;SDS011;3098;42.678;23.364;2023-07-13T11:42:58;6.53;;;4.70;;
6133;SDS011;3098;42.678;23.364;2023-07-13T11:45:26;8.20;;;4.65;;
6133;SDS011;3098;42.678;23.364;2023-07-13T11:47:53;8.68;;;4.85;;
6133;SDS011;3098;42.678;23.364;2023-07-13T11:50:23;10.82;;;5.07;;
6133;SDS011;3098;42.678;23.364;2023-07-13T11:52:52;5.82;;;4.30;;
6133;SDS011;3098;42.678;23.364;2023-07-13T11:55:21;11.23;;;5.07;;
6133;SDS011;3098;42.678;23.364;2023-07-13T11:57:50;8.18;;;4.70;;
6133;SDS011;3098;42.678;23.364;2023-07-13T12:00:21;7.88;;;4.32;;
6133;SDS011;3098;42.678;23.364;2023-07-13T12:02:53;7.80;;;5.43;;
6133;SDS011;3098;42.678;23.364;2023-07-13T12:05:24;8.27;;;4.65;;
6133;SDS011;3098;42.678;23.364;2023-07-13T12:07:52;9.10;;;4.55;;
6133;SDS011;3098;42.678;23.364;2023-07-13T12:10:21;12.13;;;4.72;;
6133;SDS011;3098;42.678;23.364;2023-07-13T12:12:52;10.40;;;4.95;;
6133;SDS011;3098;42.678;23.364;2023-07-13T12:15:20;7.00;;;4.72;;
6133;SDS011;3098;42.678;23.364;2023-07-13T12:17:48;6.13;;;4.50;;
6133;SDS011;3098;42.678;23.364;2023-07-13T12:20:19;8.13;;;4.47;;
6133;SDS011;3098;42.678;23.364;2023-07-13T12:22:49;11.10;;;4.30;;
6133;SDS011;3098;42.678;23.364;2023-07-13T12:25:19;9.57;;;4.57;;
6133;SDS011;3098;42.678;23.364;2023-07-13T12:27:48;10.73;;;4.70;;
6133;SDS011;3098;42.678;23.364;2023-07-13T12:30:27;18.02;;;4.72;;
6133;SDS011;3098;42.678;23.364;2023-07-13T12:32:56;7.35;;;4.90;;
6133;SDS011;3098;42.678;23.364;2023-07-13T12:35:26;10.00;;;4.97;;
6133;SDS011;3098;42.678;23.364;2023-07-13T12:37:59;11.13;;;4.90;;
6133;SDS011;3098;42.678;23.364;2023-07-13T12:40:28;9.15;;;4.40;;
6133;SDS011;3098;42.678;23.364;2023-07-13T12:43:00;12.80;;;4.65;;
6133;SDS011;3098;42.678;23.364;2023-07-13T12:45:29;6.18;;;4.38;;
6133;SDS011;3098;42.678;23.364;2023-07-13T12:47:58;13.18;;;4.75;;
6133;SDS011;3098;42.678;23.364;2023-07-13T12:50:31;7.78;;;4.60;;
6133;SDS011;3098;42.678;23.364;2023-07-13T12:53:05;7.72;;;4.32;;
6133;SDS011;3098;42.678;23.364;2023-07-13T12:55:41;10.90;;;4.68;;
6133;SDS011;3098;42.678;23.364;2023-07-13T12:58:13;6.10;;;4.28;;
6133;SDS011;3098;42.678;23.364;2023-07-13T13:00:48;10.95;;;4.35;;
6133;SDS011;3098;42.678;23.364;2023-07-13T13:03:21;10.20;;;5.22;;
6133;SDS011;3098;42.678;23.364;2023-07-13T13:05:59;9.00;;;5.30;;
6133;SDS011;3098;42.678;23.364;2023-07-13T13:08:30;9.02;;;5.40;;
6133;SDS011;3098;42.678;23.364;2023-07-13T13:10:57;12.80;;;6.30;;
6133;SDS011;3098;42.678;23.364;2023-07-13T13:13:24;10.60;;;5.78;;
6133;SDS011;3098;42.678;23.364;2023-07-13T13:15:52;13.77;;;5.65;;
6133;SDS011;3098;42.678;23.364;2023-07-13T13:18:20;8.90;;;5.88;;
6133;SDS011;3098;42.678;23.364;2023-07-13T13:20:48;12.90;;;5.82;;
6133;SDS011;3098;42.678;23.364;2023-07-13T13:23:16;12.10;;;5.68;;
6133;SDS011;3098;42.678;23.364;2023-07-13T13:25:46;10.82;;;5.90;;
6133;SDS011;3098;42.678;23.364;2023-07-13T13:28:17;14.55;;;5.32;;
6133;SDS011;3098;42.678;23.364;2023-07-13T13:30:45;11.00;;;5.57;;
6133;SDS011;3098;42.678;23.364;2023-07-13T13:33:14;11.27;;;5.65;;
6133;SDS011;3098;42.678;23.364;2023-07-13T13:35:42;15.38;;;5.43;;
6133;SDS011;3098;42.678;23.364;2023-07-13T13:38:11;6.97;;;5.00;;
6133;SDS011;3098;42.678;23.364;2023-07-13T13:40:39;10.90;;;4.78;;
6133;SDS011;3098;42.678;23.364;2023-07-13T13:43:17;16.83;;;5.80;;
6133;SDS011;3098;42.678;23.364;2023-07-13T13:45:45;11.40;;;5.28;;
6133;SDS011;3098;42.678;23.364;2023-07-13T13:48:14;7.85;;;4.72;;
6133;SDS011;3098;42.678;23.364;2023-07-13T13:50:43;14.68;;;4.82;;
6133;SDS011;3098;42.678;23.364;2023-07-13T13:53:11;14.18;;;5.43;;
6133;SDS011;3098;42.678;23.364;2023-07-13T13:55:38;9.77;;;4.80;;
6133;SDS011;3098;42.678;23.364;2023-07-13T13:58:07;11.60;;;5.00;;
6133;SDS011;3098;42.678;23.364;2023-07-13T14:00:36;7.68;;;4.25;;
6133;SDS011;3098;42.678;23.364;2023-07-13T14:03:04;16.65;;;4.65;;
6133;SDS011;3098;42.678;23.364;2023-07-13T14:05:34;11.50;;;4.65;;
6133;SDS011;3098;42.678;23.364;2023-07-13T14:08:01;14.13;;;4.63;;
6133;SDS011;3098;42.678;23.364;2023-07-13T14:10:28;6.63;;;3.95;;
6133;SDS011;3098;42.678;23.364;2023-07-13T14:12:56;10.73;;;4.45;;
6133;SDS011;3098;42.678;23.364;2023-07-13T14:15:24;10.82;;;4.50;;
6133;SDS011;3098;42.678;23.364;2023-07-13T14:17:54;9.02;;;5.32;;
6133;SDS011;3098;42.678;23.364;2023-07-13T14:20:23;11.43;;;5.60;;
6133;SDS011;3098;42.678;23.364;2023-07-13T14:22:51;13.93;;;5.32;;
6133;SDS011;3098;42.678;23.364;2023-07-13T14:25:20;8.60;;;4.20;;
6133;SDS011;3098;42.678;23.364;2023-07-13T14:27:49;8.02;;;4.20;;
6133;SDS011;3098;42.678;23.364;2023-07-13T14:30:21;7.63;;;4.75;;
6133;SDS011;3098;42.678;23.364;2023-07-13T14:32:48;14.32;;;4.60;;
6133;SDS011;3098;42.678;23.364;2023-07-13T14:35:18;11.70;;;4.43;;
6133;SDS011;3098;42.678;23.364;2023-07-13T14:37:48;16.05;;;4.05;;
6133;SDS011;3098;42.678;23.364;2023-07-13T14:40:17;12.40;;;4.88;;
6133;SDS011;3098;42.678;23.364;2023-07-13T14:42:55;12.02;;;4.93;;
6133;SDS011;3098;42.678;23.364;2023-07-13T14:45:22;10.93;;;5.30;;
6133;SDS011;3098;42.678;23.364;2023-07-13T14:47:50;8.63;;;4.53;;
6133;SDS011;3098;42.678;23.364;2023-07-13T14:50:19;9.10;;;4.30;;
6133;SDS011;3098;42.678;23.364;2023-07-13T14:52:56;11.25;;;4.47;;
6133;SDS011;3098;42.678;23.364;2023-07-13T14:55:23;11.60;;;4.53;;
6133;SDS011;3098;42.678;23.364;2023-07-13T14:57:51;9.45;;;5.00;;
6133;SDS011;3098;42.678;23.364;2023-07-13T15:00:19;8.23;;;4.50;;
6133;SDS011;3098;42.678;23.364;2023-07-13T15:02:49;13.90;;;4.30;;
6133;SDS011;3098;42.678;23.364;2023-07-13T15:05:21;8.98;;;4.30;;
6133;SDS011;3098;42.678;23.364;2023-07-13T15:07:50;8.80;;;4.07;;